sensor_id;sensor_type;location;lat;lon;timestamp;P1;durP1;ratioP1;P2;durP2;ratioP2
13834;SDS011;6988;52.614;13.500;2024-02-26T00:02:44;10.93;;;7.63;;
13834;SDS011;6988;52.614;13.500;2024-02-26T00:07:36;8.40;;;6.73;;
13834;SDS011;6988;52.614;13.500;2024-02-26T00:12:29;8.30;;;6.23;;
13834;SDS011;6988;52.614;13.500;2024-02-26T00:17:21;8.13;;;6.50;;
13834;SDS011;6988;52.614;13.500;2024-02-26T00:22:15;6.93;;;6.20;;
13834;SDS011;6988;52.614;13.500;2024-02-26T00:27:08;8.57;;;6.00;;
13834;SDS011;6988;52.614;13.500;2024-02-26T00:32:00;7.03;;;6.17;;
13834;SDS011;6988;52.614;13.500;2024-02-26T00:36:52;7.13;;;5.93;;
13834;SDS011;6988;52.614;13.500;2024-02-26T00:41:45;7.73;;;6.23;;
13834;SDS011;6988;52.614;13.500;2024-02-26T00:46:37;6.27;;;5.53;;
13834;SDS011;6988;52.614;13.500;2024-02-26T00:51:29;6.90;;;6.00;;
13834;SDS011;6988;52.614;13.500;2024-02-26T00:56:22;6.97;;;5.80;;
13834;SDS011;6988;52.614;13.500;2024-02-26T01:01:15;7.57;;;6.07;;
13834;SDS011;6988;52.614;13.500;2024-02-26T01:06:07;7.53;;;5.93;;
13834;SDS011;6988;52.614;13.500;2024-02-26T01:10:59;6.27;;;5.27;;
13834;SDS011;6988;52.614;13.500;2024-02-26T01:15:51;8.00;;;5.23;;
13834;SDS011;6988;52.614;13.500;2024-02-26T01:20:45;6.70;;;5.70;;
13834;SDS011;6988;52.614;13.500;2024-02-26T01:25:37;6.00;;;5.40;;
13834;SDS011;6988;52.614;13.500;2024-02-26T01:30:29;6.13;;;5.20;;
13834;SDS011;6988;52.614;13.500;2024-02-26T01:35:21;6.60;;;5.27;;
13834;SDS011;6988;52.614;13.500;2024-02-26T01:40:14;7.13;;;5.27;;
13834;SDS011;6988;52.614;13.500;2024-02-26T01:45:10;5.37;;;4.30;;
13834;SDS011;6988;52.614;13.500;2024-02-26T01:50:11;5.10;;;4.60;;
13834;SDS011;6988;52.614;13.500;2024-02-26T01:55:04;5.43;;;4.60;;
13834;SDS011;6988;52.614;13.500;2024-02-26T01:59:58;5.93;;;5.30;;
13834;SDS011;6988;52.614;13.500;2024-02-26T02:04:50;5.67;;;4.27;;
13834;SDS011;6988;52.614;13.500;2024-02-26T02:09:43;7.93;;;5.13;;
13834;SDS011;6988;52.614;13.500;2024-02-26T02:14:35;6.40;;;5.77;;
13834;SDS011;6988;52.614;13.500;2024-02-26T02:19:29;5.80;;;4.70;;
13834;SDS011;6988;52.614;13.500;2024-02-26T02:24:22;5.70;;;4.97;;
13834;SDS011;6988;52.614;13.500;2024-02-26T02:29:14;6.73;;;5.33;;
13834;SDS011;6988;52.614;13.500;2024-02-26T02:34:07;6.10;;;5.50;;
13834;SDS011;6988;52.614;13.500;2024-02-26T02:39:00;7.20;;;5.97;;
13834;SDS011;6988;52.614;13.500;2024-02-26T02:43:54;6.07;;;5.47;;
13834;SDS011;6988;52.614;13.500;2024-02-26T02:48:46;5.87;;;4.93;;
13834;SDS011;6988;52.614;13.500;2024-02-26T02:53:38;6.57;;;5.13;;
13834;SDS011;6988;52.614;13.500;2024-02-26T02:58:30;7.33;;;5.47;;
13834;SDS011;6988;52.614;13.500;2024-02-26T03:03:24;6.40;;;5.00;;
13834;SDS011;6988;52.614;13.500;2024-02-26T03:08:18;5.97;;;5.37;;
13834;SDS011;6988;52.614;13.500;2024-02-26T03:13:10;6.50;;;5.40;;
13834;SDS011;6988;52.614;13.500;2024-02-26T03:18:03;6.10;;;5.40;;
13834;SDS011;6988;52.614;13.500;2024-02-26T03:22:56;5.97;;;5.13;;
13834;SDS011;6988;52.614;13.500;2024-02-26T03:27:48;5.30;;;4.73;;
13834;SDS011;6988;52.614;13.500;2024-02-26T03:32:41;6.23;;;4.70;;
13834;SDS011;6988;52.614;13.500;2024-02-26T03:37:33;6.23;;;4.93;;
13834;SDS011;6988;52.614;13.500;2024-02-26T03:42:26;5.87;;;4.60;;
13834;SDS011;6988;52.614;13.500;2024-02-26T03:47:18;7.33;;;5.10;;
13834;SDS011;6988;52.614;13.500;2024-02-26T03:52:10;5.90;;;5.10;;
13834;SDS011;6988;52.614;13.500;2024-02-26T03:57:03;9.60;;;5.20;;
13834;SDS011;6988;52.614;13.500;2024-02-26T04:01:56;5.50;;;4.90;;
13834;SDS011;6988;52.614;13.500;2024-02-26T04:06:50;6.37;;;5.03;;
13834;SDS011;6988;52.614;13.500;2024-02-26T04:11:42;6.10;;;5.30;;
13834;SDS011;6988;52.614;13.500;2024-02-26T04:16:34;7.00;;;5.37;;
13834;SDS011;6988;52.614;13.500;2024-02-26T04:21:28;7.53;;;5.57;;
13834;SDS011;6988;52.614;13.500;2024-02-26T04:26:20;6.10;;;5.37;;
13834;SDS011;6988;52.614;13.500;2024-02-26T04:31:12;6.53;;;5.57;;
13834;SDS011;6988;52.614;13.500;2024-02-26T04:36:04;7.13;;;5.70;;
13834;SDS011;6988;52.614;13.500;2024-02-26T04:40:58;6.70;;;5.13;;
13834;SDS011;6988;52.614;13.500;2024-02-26T04:45:50;8.93;;;6.57;;
13834;SDS011;6988;52.614;13.500;2024-02-26T04:50:43;7.70;;;5.90;;
13834;SDS011;6988;52.614;13.500;2024-02-26T04:55:35;7.37;;;6.40;;
13834;SDS011;6988;52.614;13.500;2024-02-26T05:00:29;8.43;;;6.50;;
13834;SDS011;6988;52.614;13.500;2024-02-26T05:05:20;8.40;;;6.10;;
13834;SDS011;6988;52.614;13.500;2024-02-26T05:10:13;7.93;;;6.20;;
13834;SDS011;6988;52.614;13.500;2024-02-26T05:15:06;8.47;;;6.53;;
13834;SDS011;6988;52.614;13.500;2024-02-26T05:20:00;8.23;;;6.50;;
13834;SDS011;6988;52.614;13.500;2024-02-26T05:24:52;8.40;;;6.93;;
13834;SDS011;6988;52.614;13.500;2024-02-26T05:29:45;8.97;;;7.43;;
13834;SDS011;6988;52.614;13.500;2024-02-26T05:34:36;8.13;;;6.90;;
13834;SDS011;6988;52.614;13.500;2024-02-26T05:39:30;9.53;;;7.97;;
13834;SDS011;6988;52.614;13.500;2024-02-26T05:44:22;8.13;;;7.27;;
13834;SDS011;6988;52.614;13.500;2024-02-26T05:49:17;10.20;;;8.10;;
13834;SDS011;6988;52.614;13.500;2024-02-26T05:54:10;10.93;;;8.40;;
13834;SDS011;6988;52.614;13.500;2024-02-26T05:59:03;11.63;;;8.87;;
13834;SDS011;6988;52.614;13.500;2024-02-26T06:03:55;11.20;;;9.13;;
13834;SDS011;6988;52.614;13.500;2024-02-26T06:08:47;11.37;;;9.17;;
13834;SDS011;6988;52.614;13.500;2024-02-26T06:13:40;11.17;;;9.27;;
13834;SDS011;6988;52.614;13.500;2024-02-26T06:18:34;11.03;;;8.57;;
13834;SDS011;6988;52.614;13.500;2024-02-26T06:23:25;12.07;;;8.93;;
13834;SDS011;6988;52.614;13.500;2024-02-26T06:28:18;11.77;;;9.17;;
13834;SDS011;6988;52.614;13.500;2024-02-26T06:33:10;11.97;;;9.37;;
13834;SDS011;6988;52.614;13.500;2024-02-26T06:38:04;14.07;;;10.20;;
13834;SDS011;6988;52.614;13.500;2024-02-26T06:42:55;14.13;;;10.93;;
13834;SDS011;6988;52.614;13.500;2024-02-26T06:47:47;13.37;;;10.27;;
13834;SDS011;6988;52.614;13.500;2024-02-26T06:52:39;15.30;;;11.40;;
13834;SDS011;6988;52.614;13.500;2024-02-26T06:57:33;13.80;;;11.90;;
13834;SDS011;6988;52.614;13.500;2024-02-26T07:02:25;17.13;;;13.13;;
13834;SDS011;6988;52.614;13.500;2024-02-26T07:07:18;18.27;;;13.83;;
13834;SDS011;6988;52.614;13.500;2024-02-26T07:12:12;18.00;;;14.50;;
13834;SDS011;6988;52.614;13.500;2024-02-26T07:17:06;17.77;;;14.07;;
13834;SDS011;6988;52.614;13.500;2024-02-26T07:21:58;20.10;;;13.60;;
13834;SDS011;6988;52.614;13.500;2024-02-26T07:26:51;17.77;;;13.37;;
13834;SDS011;6988;52.614;13.500;2024-02-26T07:31:44;17.67;;;13.50;;
13834;SDS011;6988;52.614;13.500;2024-02-26T07:36:37;18.57;;;14.50;;
13834;SDS011;6988;52.614;13.500;2024-02-26T07:41:29;19.63;;;14.37;;
13834;SDS011;6988;52.614;13.500;2024-02-26T07:46:22;18.37;;;14.23;;
13834;SDS011;6988;52.614;13.500;2024-02-26T07:51:14;18.23;;;13.80;;
13834;SDS011;6988;52.614;13.500;2024-02-26T07:56:08;16.57;;;13.87;;
13834;SDS011;6988;52.614;13.500;2024-02-26T08:01:00;15.50;;;12.60;;
13834;SDS011;6988;52.614;13.500;2024-02-26T08:05:52;16.43;;;13.37;;
13834;SDS011;6988;52.614;13.500;2024-02-26T08:10:45;20.17;;;14.20;;
13834;SDS011;6988;52.614;13.500;2024-02-26T08:15:38;19.00;;;14.17;;
13834;SDS011;6988;52.614;13.500;2024-02-26T08:20:30;18.47;;;14.37;;
13834;SDS011;6988;52.614;13.500;2024-02-26T08:25:23;19.23;;;14.23;;
13834;SDS011;6988;52.614;13.500;2024-02-26T08:30:15;17.30;;;13.57;;
13834;SDS011;6988;52.614;13.500;2024-02-26T08:35:09;18.60;;;13.37;;
13834;SDS011;6988;52.614;13.500;2024-02-26T08:40:01;17.20;;;13.77;;
13834;SDS011;6988;52.614;13.500;2024-02-26T08:44:54;17.80;;;14.23;;
13834;SDS011;6988;52.614;13.500;2024-02-26T08:49:45;19.03;;;15.43;;
13834;SDS011;6988;52.614;13.500;2024-02-26T08:54:39;19.17;;;15.33;;
13834;SDS011;6988;52.614;13.500;2024-02-26T08:59:31;22.17;;;15.60;;
13834;SDS011;6988;52.614;13.500;2024-02-26T09:04:22;19.13;;;14.30;;
13834;SDS011;6988;52.614;13.500;2024-02-26T09:09:14;19.83;;;14.57;;
13834;SDS011;6988;52.614;13.500;2024-02-26T09:14:07;19.20;;;14.10;;
13834;SDS011;6988;52.614;13.500;2024-02-26T09:18:59;18.10;;;14.60;;
13834;SDS011;6988;52.614;13.500;2024-02-26T09:23:52;17.93;;;14.13;;
13834;SDS011;6988;52.614;13.500;2024-02-26T09:28:44;16.80;;;12.60;;
13834;SDS011;6988;52.614;13.500;2024-02-26T09:33:38;15.57;;;11.60;;
13834;SDS011;6988;52.614;13.500;2024-02-26T09:38:30;17.00;;;11.10;;
13834;SDS011;6988;52.614;13.500;2024-02-26T09:43:27;17.07;;;11.33;;
13834;SDS011;6988;52.614;13.500;2024-02-26T09:48:26;15.93;;;11.63;;
13834;SDS011;6988;52.614;13.500;2024-02-26T09:53:22;16.23;;;11.40;;
13834;SDS011;6988;52.614;13.500;2024-02-26T09:58:14;15.87;;;11.63;;
13834;SDS011;6988;52.614;13.500;2024-02-26T10:03:09;15.17;;;11.10;;
13834;SDS011;6988;52.614;13.500;2024-02-26T10:08:06;15.47;;;11.50;;
13834;SDS011;6988;52.614;13.500;2024-02-26T10:13:03;14.80;;;11.40;;
13834;SDS011;6988;52.614;13.500;2024-02-26T10:18:00;14.70;;;10.97;;
13834;SDS011;6988;52.614;13.500;2024-02-26T10:22:55;17.20;;;11.13;;
13834;SDS011;6988;52.614;13.500;2024-02-26T10:27:47;15.80;;;11.27;;
13834;SDS011;6988;52.614;13.500;2024-02-26T10:32:41;14.67;;;11.07;;
13834;SDS011;6988;52.614;13.500;2024-02-26T10:37:33;15.40;;;11.57;;
13834;SDS011;6988;52.614;13.500;2024-02-26T10:42:25;14.23;;;10.43;;
13834;SDS011;6988;52.614;13.500;2024-02-26T10:47:17;16.90;;;12.53;;
13834;SDS011;6988;52.614;13.500;2024-02-26T10:52:11;14.53;;;10.17;;
13834;SDS011;6988;52.614;13.500;2024-02-26T10:57:06;14.77;;;10.93;;
13834;SDS011;6988;52.614;13.500;2024-02-26T11:02:00;15.53;;;11.60;;
13834;SDS011;6988;52.614;13.500;2024-02-26T11:06:54;17.93;;;12.47;;
13834;SDS011;6988;52.614;13.500;2024-02-26T11:11:50;17.30;;;13.27;;
13834;SDS011;6988;52.614;13.500;2024-02-26T11:16:44;18.20;;;12.83;;
13834;SDS011;6988;52.614;13.500;2024-02-26T11:21:38;16.97;;;12.90;;
13834;SDS011;6988;52.614;13.500;2024-02-26T11:26:31;18.27;;;13.53;;
13834;SDS011;6988;52.614;13.500;2024-02-26T11:31:26;16.77;;;11.80;;
13834;SDS011;6988;52.614;13.500;2024-02-26T11:36:19;15.87;;;12.27;;
13834;SDS011;6988;52.614;13.500;2024-02-26T11:41:12;16.53;;;11.97;;
13834;SDS011;6988;52.614;13.500;2024-02-26T11:46:03;15.03;;;11.57;;
13834;SDS011;6988;52.614;13.500;2024-02-26T11:50:57;15.50;;;11.37;;
13834;SDS011;6988;52.614;13.500;2024-02-26T12:06:46;10.83;;;8.40;;
13834;SDS011;6988;52.614;13.500;2024-02-26T12:11:41;11.63;;;8.53;;
13834;SDS011;6988;52.614;13.500;2024-02-26T12:16:37;15.07;;;8.57;;
13834;SDS011;6988;52.614;13.500;2024-02-26T12:21:30;10.03;;;7.83;;
13834;SDS011;6988;52.614;13.500;2024-02-26T12:26:26;9.27;;;7.63;;
13834;SDS011;6988;52.614;13.500;2024-02-26T12:31:18;11.17;;;7.30;;
13834;SDS011;6988;52.614;13.500;2024-02-26T12:36:10;9.10;;;7.27;;
13834;SDS011;6988;52.614;13.500;2024-02-26T12:41:02;9.90;;;6.77;;
13834;SDS011;6988;52.614;13.500;2024-02-26T12:45:56;9.37;;;7.23;;
13834;SDS011;6988;52.614;13.500;2024-02-26T12:50:49;10.93;;;6.80;;
13834;SDS011;6988;52.614;13.500;2024-02-26T12:55:40;7.87;;;5.43;;
13834;SDS011;6988;52.614;13.500;2024-02-26T13:00:34;8.47;;;5.63;;
13834;SDS011;6988;52.614;13.500;2024-02-26T13:05:29;6.53;;;4.97;;
13834;SDS011;6988;52.614;13.500;2024-02-26T13:10:22;6.97;;;4.60;;
13834;SDS011;6988;52.614;13.500;2024-02-26T13:15:16;6.60;;;4.63;;
13834;SDS011;6988;52.614;13.500;2024-02-26T13:20:09;6.50;;;5.17;;
13834;SDS011;6988;52.614;13.500;2024-02-26T13:25:04;5.23;;;4.17;;
13834;SDS011;6988;52.614;13.500;2024-02-26T13:30:03;5.67;;;4.03;;
13834;SDS011;6988;52.614;13.500;2024-02-26T13:35:06;6.17;;;3.40;;
13834;SDS011;6988;52.614;13.500;2024-02-26T13:40:00;5.53;;;3.80;;
13834;SDS011;6988;52.614;13.500;2024-02-26T13:44:58;6.20;;;3.97;;
13834;SDS011;6988;52.614;13.500;2024-02-26T13:49:50;6.53;;;4.20;;
13834;SDS011;6988;52.614;13.500;2024-02-26T13:54:42;6.73;;;4.23;;
13834;SDS011;6988;52.614;13.500;2024-02-26T13:59:36;6.10;;;4.20;;
13834;SDS011;6988;52.614;13.500;2024-02-26T14:04:32;6.60;;;4.93;;
13834;SDS011;6988;52.614;13.500;2024-02-26T14:09:24;6.30;;;5.00;;
13834;SDS011;6988;52.614;13.500;2024-02-26T14:14:16;7.90;;;5.57;;
13834;SDS011;6988;52.614;13.500;2024-02-26T14:19:09;8.50;;;5.13;;
13834;SDS011;6988;52.614;13.500;2024-02-26T14:24:01;8.57;;;5.40;;
13834;SDS011;6988;52.614;13.500;2024-02-26T14:28:55;8.77;;;5.97;;
13834;SDS011;6988;52.614;13.500;2024-02-26T14:33:48;7.90;;;5.57;;
13834;SDS011;6988;52.614;13.500;2024-02-26T14:38:44;6.90;;;5.30;;
13834;SDS011;6988;52.614;13.500;2024-02-26T14:43:36;7.90;;;6.00;;
13834;SDS011;6988;52.614;13.500;2024-02-26T14:48:29;8.67;;;6.23;;
13834;SDS011;6988;52.614;13.500;2024-02-26T14:53:21;8.80;;;5.90;;
13834;SDS011;6988;52.614;13.500;2024-02-26T14:58:15;7.00;;;5.70;;
13834;SDS011;6988;52.614;13.500;2024-02-26T15:03:07;8.63;;;6.30;;
13834;SDS011;6988;52.614;13.500;2024-02-26T15:07:59;9.67;;;6.77;;
13834;SDS011;6988;52.614;13.500;2024-02-26T15:12:52;10.30;;;7.13;;
13834;SDS011;6988;52.614;13.500;2024-02-26T15:17:47;12.27;;;8.00;;
13834;SDS011;6988;52.614;13.500;2024-02-26T15:22:40;10.83;;;7.63;;
13834;SDS011;6988;52.614;13.500;2024-02-26T15:27:32;11.73;;;8.43;;
13834;SDS011;6988;52.614;13.500;2024-02-26T15:32:24;11.20;;;8.20;;
13834;SDS011;6988;52.614;13.500;2024-02-26T15:37:18;12.50;;;8.23;;
13834;SDS011;6988;52.614;13.500;2024-02-26T15:42:10;10.47;;;8.03;;
13834;SDS011;6988;52.614;13.500;2024-02-26T15:47:03;11.47;;;8.53;;
13834;SDS011;6988;52.614;13.500;2024-02-26T15:51:56;11.03;;;8.03;;
13834;SDS011;6988;52.614;13.500;2024-02-26T15:56:50;12.30;;;8.43;;
13834;SDS011;6988;52.614;13.500;2024-02-26T16:01:42;10.77;;;8.13;;
13834;SDS011;6988;52.614;13.500;2024-02-26T16:06:36;12.30;;;8.40;;
13834;SDS011;6988;52.614;13.500;2024-02-26T16:11:33;12.00;;;8.53;;
13834;SDS011;6988;52.614;13.500;2024-02-26T16:16:28;10.23;;;7.53;;
13834;SDS011;6988;52.614;13.500;2024-02-26T16:21:26;11.13;;;7.77;;
13834;SDS011;6988;52.614;13.500;2024-02-26T16:26:18;12.10;;;8.63;;
13834;SDS011;6988;52.614;13.500;2024-02-26T16:31:10;12.17;;;9.60;;
13834;SDS011;6988;52.614;13.500;2024-02-26T16:36:03;12.60;;;9.10;;
13834;SDS011;6988;52.614;13.500;2024-02-26T16:40:59;12.67;;;9.03;;
13834;SDS011;6988;52.614;13.500;2024-02-26T16:45:51;13.47;;;9.77;;
13834;SDS011;6988;52.614;13.500;2024-02-26T16:50:43;15.00;;;9.43;;
13834;SDS011;6988;52.614;13.500;2024-02-26T16:55:37;18.07;;;11.47;;
13834;SDS011;6988;52.614;13.500;2024-02-26T17:00:29;25.00;;;12.60;;
13834;SDS011;6988;52.614;13.500;2024-02-26T17:05:22;27.63;;;14.97;;
13834;SDS011;6988;52.614;13.500;2024-02-26T17:10:14;30.03;;;15.60;;
13834;SDS011;6988;52.614;13.500;2024-02-26T17:15:09;32.47;;;17.10;;
13834;SDS011;6988;52.614;13.500;2024-02-26T17:20:01;32.07;;;15.37;;
13834;SDS011;6988;52.614;13.500;2024-02-26T17:24:54;28.83;;;15.40;;
13834;SDS011;6988;52.614;13.500;2024-02-26T17:29:46;25.47;;;14.87;;
13834;SDS011;6988;52.614;13.500;2024-02-26T17:34:40;22.90;;;13.47;;
13834;SDS011;6988;52.614;13.500;2024-02-26T17:39:33;23.83;;;13.77;;
13834;SDS011;6988;52.614;13.500;2024-02-26T17:44:32;24.43;;;14.03;;
13834;SDS011;6988;52.614;13.500;2024-02-26T17:49:25;16.23;;;11.67;;
13834;SDS011;6988;52.614;13.500;2024-02-26T17:54:19;17.37;;;11.10;;
13834;SDS011;6988;52.614;13.500;2024-02-26T17:59:11;16.63;;;10.70;;
13834;SDS011;6988;52.614;13.500;2024-02-26T18:04:03;14.70;;;9.40;;
13834;SDS011;6988;52.614;13.500;2024-02-26T18:08:55;17.27;;;11.13;;
13834;SDS011;6988;52.614;13.500;2024-02-26T18:13:48;13.37;;;10.07;;
13834;SDS011;6988;52.614;13.500;2024-02-26T18:18:40;15.97;;;9.63;;
13834;SDS011;6988;52.614;13.500;2024-02-26T18:23:36;17.77;;;11.03;;
13834;SDS011;6988;52.614;13.500;2024-02-26T18:28:28;10.53;;;8.50;;
13834;SDS011;6988;52.614;13.500;2024-02-26T18:33:21;13.03;;;8.83;;
13834;SDS011;6988;52.614;13.500;2024-02-26T18:38:16;12.60;;;8.37;;
13834;SDS011;6988;52.614;13.500;2024-02-26T18:43:08;13.90;;;9.23;;
13834;SDS011;6988;52.614;13.500;2024-02-26T18:48:00;11.77;;;8.10;;
13834;SDS011;6988;52.614;13.500;2024-02-26T18:52:54;12.10;;;8.10;;
13834;SDS011;6988;52.614;13.500;2024-02-26T18:57:51;13.50;;;8.73;;
13834;SDS011;6988;52.614;13.500;2024-02-26T19:02:43;11.33;;;8.40;;
13834;SDS011;6988;52.614;13.500;2024-02-26T19:07:35;12.97;;;8.83;;
13834;SDS011;6988;52.614;13.500;2024-02-26T19:12:28;11.73;;;8.00;;
13834;SDS011;6988;52.614;13.500;2024-02-26T19:17:20;12.43;;;8.30;;
13834;SDS011;6988;52.614;13.500;2024-02-26T19:22:12;10.53;;;7.77;;
13834;SDS011;6988;52.614;13.500;2024-02-26T19:27:04;10.53;;;7.60;;
13834;SDS011;6988;52.614;13.500;2024-02-26T19:31:57;12.93;;;7.30;;
13834;SDS011;6988;52.614;13.500;2024-02-26T19:36:49;11.03;;;7.47;;
13834;SDS011;6988;52.614;13.500;2024-02-26T19:41:41;10.23;;;7.53;;
13834;SDS011;6988;52.614;13.500;2024-02-26T19:46:32;10.13;;;7.33;;
13834;SDS011;6988;52.614;13.500;2024-02-26T19:51:26;9.77;;;7.40;;
13834;SDS011;6988;52.614;13.500;2024-02-26T19:56:18;12.13;;;7.63;;
13834;SDS011;6988;52.614;13.500;2024-02-26T20:01:11;11.20;;;7.70;;
13834;SDS011;6988;52.614;13.500;2024-02-26T20:06:03;10.23;;;7.33;;
13834;SDS011;6988;52.614;13.500;2024-02-26T20:10:57;11.50;;;8.03;;
13834;SDS011;6988;52.614;13.500;2024-02-26T20:15:49;12.73;;;8.40;;
13834;SDS011;6988;52.614;13.500;2024-02-26T20:20:41;10.67;;;7.77;;
13834;SDS011;6988;52.614;13.500;2024-02-26T20:25:33;11.40;;;7.63;;
13834;SDS011;6988;52.614;13.500;2024-02-26T20:30:28;11.73;;;7.93;;
13834;SDS011;6988;52.614;13.500;2024-02-26T20:35:19;11.40;;;8.00;;
13834;SDS011;6988;52.614;13.500;2024-02-26T20:40:12;11.83;;;7.83;;
13834;SDS011;6988;52.614;13.500;2024-02-26T20:45:09;10.90;;;7.83;;
13834;SDS011;6988;52.614;13.500;2024-02-26T20:50:03;13.33;;;8.10;;
13834;SDS011;6988;52.614;13.500;2024-02-26T20:54:56;9.90;;;7.57;;
13834;SDS011;6988;52.614;13.500;2024-02-26T20:59:50;11.37;;;7.47;;
13834;SDS011;6988;52.614;13.500;2024-02-26T21:04:42;8.70;;;6.13;;
13834;SDS011;6988;52.614;13.500;2024-02-26T21:09:35;8.67;;;5.93;;
13834;SDS011;6988;52.614;13.500;2024-02-26T21:14:27;7.77;;;6.10;;
13834;SDS011;6988;52.614;13.500;2024-02-26T21:19:20;7.77;;;5.33;;
13834;SDS011;6988;52.614;13.500;2024-02-26T21:24:11;7.87;;;5.57;;
13834;SDS011;6988;52.614;13.500;2024-02-26T21:29:05;6.97;;;5.50;;
13834;SDS011;6988;52.614;13.500;2024-02-26T21:33:57;6.50;;;5.27;;
13834;SDS011;6988;52.614;13.500;2024-02-26T21:38:48;7.57;;;5.97;;
13834;SDS011;6988;52.614;13.500;2024-02-26T21:43:40;9.17;;;5.93;;
13834;SDS011;6988;52.614;13.500;2024-02-26T21:48:34;6.93;;;5.70;;
13834;SDS011;6988;52.614;13.500;2024-02-26T21:53:25;7.30;;;5.90;;
13834;SDS011;6988;52.614;13.500;2024-02-26T21:58:17;7.90;;;5.77;;
13834;SDS011;6988;52.614;13.500;2024-02-26T22:03:10;9.77;;;5.77;;
13834;SDS011;6988;52.614;13.500;2024-02-26T22:08:04;7.30;;;6.03;;
13834;SDS011;6988;52.614;13.500;2024-02-26T22:12:56;8.63;;;6.13;;
13834;SDS011;6988;52.614;13.500;2024-02-26T22:17:48;8.80;;;6.43;;
13834;SDS011;6988;52.614;13.500;2024-02-26T22:22:40;8.27;;;5.40;;
13834;SDS011;6988;52.614;13.500;2024-02-26T22:27:33;9.53;;;5.80;;
13834;SDS011;6988;52.614;13.500;2024-02-26T22:32:25;8.40;;;6.27;;
13834;SDS011;6988;52.614;13.500;2024-02-26T22:37:17;9.63;;;6.60;;
13834;SDS011;6988;52.614;13.500;2024-02-26T22:42:09;8.33;;;6.70;;
13834;SDS011;6988;52.614;13.500;2024-02-26T23:04:19;9.40;;;6.90;;
13834;SDS011;6988;52.614;13.500;2024-02-26T23:09:12;8.73;;;6.40;;
13834;SDS011;6988;52.614;13.500;2024-02-26T23:14:04;9.50;;;6.93;;
13834;SDS011;6988;52.614;13.500;2024-02-26T23:18:56;9.20;;;6.17;;
13834;SDS011;6988;52.614;13.500;2024-02-26T23:23:50;7.30;;;5.83;;
13834;SDS011;6988;52.614;13.500;2024-02-26T23:28:42;8.37;;;6.30;;
13834;SDS011;6988;52.614;13.500;2024-02-26T23:33:34;10.07;;;6.47;;
13834;SDS011;6988;52.614;13.500;2024-02-26T23:38:25;8.53;;;6.60;;
13834;SDS011;6988;52.614;13.500;2024-02-26T23:43:18;9.53;;;6.30;;
13834;SDS011;6988;52.614;13.500;2024-02-26T23:48:11;9.37;;;6.57;;
13834;SDS011;6988;52.614;13.500;2024-02-26T23:53:03;7.80;;;5.87;;
13834;SDS011;6988;52.614;13.500;2024-02-26T23:57:54;8.40;;;5.80;;
